createdAt,value
2019-02-11T00:00:03.997Z,995.96
2019-02-11T00:01:04.048Z,995.96
2019-02-11T00:02:04.100Z,996.05
2019-02-11T00:03:04.152Z,996.03
2019-02-11T00:04:04.204Z,996.02
2019-02-11T00:05:04.257Z,996.13
2019-02-11T00:06:04.307Z,996.14
2019-02-11T00:07:04.404Z,996.12
2019-02-11T00:08:04.412Z,996.23
2019-02-11T00:09:04.465Z,996.23
2019-02-11T00:10:04.515Z,996.22
2019-02-11T00:11:04.572Z,996.28
2019-02-11T00:12:04.621Z,996.31
2019-02-11T00:13:10.427Z,996.35
2019-02-11T00:14:04.725Z,996.29
2019-02-11T00:15:04.778Z,996.29
2019-02-11T00:16:04.829Z,996.36
2019-02-11T00:17:04.882Z,996.46
2019-02-11T00:18:04.933Z,996.44
2019-02-11T00:19:04.985Z,996.48
2019-02-11T00:20:05.038Z,996.54
2019-02-11T00:21:05.088Z,996.52
2019-02-11T00:22:05.139Z,996.51
2019-02-11T00:23:05.192Z,996.59
2019-02-11T00:24:05.246Z,996.56
2019-02-11T00:25:05.296Z,996.63
2019-02-11T00:26:05.349Z,996.55
2019-02-11T00:27:05.401Z,996.61
2019-02-11T00:28:05.456Z,996.56
2019-02-11T00:29:05.504Z,996.57
2019-02-11T00:30:05.556Z,996.74
2019-02-11T00:31:05.611Z,996.54
2019-02-11T00:32:05.661Z,996.74
2019-02-11T00:33:05.710Z,996.89
2019-02-11T00:34:05.763Z,996.78
2019-02-11T00:35:05.816Z,996.76
2019-02-11T00:36:05.867Z,996.78
2019-02-11T00:37:05.919Z,996.73
2019-02-11T00:38:06.510Z,996.77
2019-02-11T00:39:06.025Z,996.76
2019-02-11T00:40:06.080Z,996.70
2019-02-11T00:41:06.125Z,996.81
2019-02-11T00:42:06.177Z,996.83
2019-02-11T00:43:06.232Z,996.85
2019-02-11T00:44:06.282Z,996.85
2019-02-11T00:45:06.332Z,996.84
2019-02-11T00:46:06.384Z,996.96
2019-02-11T00:47:06.437Z,996.90
2019-02-11T00:48:07.178Z,996.96
2019-02-11T00:49:06.542Z,996.98
2019-02-11T00:50:06.591Z,997.00
2019-02-11T00:51:06.643Z,997.09
2019-02-11T00:52:06.695Z,997.14
2019-02-11T00:53:06.746Z,997.11
2019-02-11T00:54:06.797Z,997.18
2019-02-11T00:55:06.850Z,997.18
2019-02-11T00:56:07.576Z,997.20
2019-02-11T00:57:07.553Z,997.18
2019-02-11T00:58:07.005Z,997.24
2019-02-11T00:59:07.056Z,997.23
2019-02-11T01:00:07.107Z,997.20
2019-02-11T01:01:07.158Z,997.27
2019-02-11T01:02:07.211Z,997.29
2019-02-11T01:03:07.264Z,997.32
2019-02-11T01:04:07.315Z,997.33
2019-02-11T01:05:07.365Z,997.29
2019-02-11T01:06:07.418Z,997.41
2019-02-11T01:07:07.800Z,997.38
2019-02-11T01:08:07.520Z,997.39
2019-02-11T01:09:07.573Z,997.40
2019-02-11T01:10:07.625Z,997.41
2019-02-11T01:11:07.676Z,997.46
2019-02-11T01:12:07.728Z,997.48
2019-02-11T01:13:07.781Z,997.51
2019-02-11T01:14:07.831Z,997.53
2019-02-11T01:15:07.883Z,997.60
2019-02-11T01:16:07.933Z,997.62
2019-02-11T01:17:07.985Z,997.68
2019-02-11T01:18:08.037Z,997.65
2019-02-11T01:19:08.089Z,997.67
2019-02-11T01:20:08.142Z,997.65
2019-02-11T01:21:08.193Z,997.66
2019-02-11T01:22:08.243Z,997.69
2019-02-11T01:23:08.296Z,997.69
2019-02-11T01:24:08.347Z,997.80
2019-02-11T01:25:08.399Z,997.74
2019-02-11T01:26:08.450Z,997.85
2019-02-11T01:27:08.502Z,997.79
2019-02-11T01:28:08.555Z,997.81
2019-02-11T01:29:08.604Z,997.84
2019-02-11T01:30:08.657Z,997.84
2019-02-11T01:31:08.709Z,997.94
2019-02-11T01:32:08.761Z,998.00
2019-02-11T01:33:08.812Z,998.00
2019-02-11T01:34:08.864Z,997.99
2019-02-11T01:35:08.916Z,998.03
2019-02-11T01:36:08.969Z,998.02
2019-02-11T01:37:09.019Z,998.03
2019-02-11T01:38:09.070Z,998.04
2019-02-11T01:39:09.122Z,998.06
2019-02-11T01:40:09.174Z,998.14
2019-02-11T01:41:09.224Z,998.15
2019-02-11T01:42:09.277Z,998.21
2019-02-11T01:43:09.330Z,998.19
2019-02-11T01:44:09.380Z,998.23
2019-02-11T01:45:09.431Z,998.24
2019-02-11T01:46:09.486Z,998.31
2019-02-11T01:47:09.535Z,998.29
2019-02-11T01:48:09.588Z,998.28
2019-02-11T01:49:09.640Z,998.33
2019-02-11T01:50:09.690Z,998.34
2019-02-11T01:51:09.742Z,998.37
2019-02-11T01:52:09.793Z,998.36
2019-02-11T01:53:09.846Z,998.40
2019-02-11T01:54:09.897Z,998.41
2019-02-11T01:55:09.950Z,998.44
2019-02-11T01:56:10.002Z,998.45
2019-02-11T01:57:10.051Z,998.47
2019-02-11T01:58:10.105Z,998.45
2019-02-11T01:59:10.157Z,998.50
2019-02-11T02:00:10.209Z,998.47
2019-02-11T02:01:10.259Z,998.54
2019-02-11T02:02:10.313Z,998.49
2019-02-11T02:03:10.363Z,998.57
2019-02-11T02:04:10.415Z,998.56
2019-02-11T02:05:10.470Z,998.59
2019-02-11T02:06:10.517Z,998.63
2019-02-11T02:07:10.570Z,998.54
2019-02-11T02:08:10.622Z,998.59
2019-02-11T02:09:10.672Z,998.64
2019-02-11T02:10:10.725Z,998.60
2019-02-11T02:11:10.777Z,998.63
2019-02-11T02:12:10.829Z,998.64
2019-02-11T02:13:10.883Z,998.67
2019-02-11T02:14:10.931Z,998.70
2019-02-11T02:15:10.983Z,998.72
2019-02-11T02:16:11.041Z,998.71
2019-02-11T02:17:11.086Z,998.68
2019-02-11T02:18:11.138Z,998.69
2019-02-11T02:19:11.191Z,998.71
2019-02-11T02:20:11.243Z,998.71
2019-02-11T02:21:11.294Z,998.73
2019-02-11T02:22:11.347Z,998.74
2019-02-11T02:23:11.398Z,998.77
2019-02-11T02:24:11.450Z,998.78
2019-02-11T02:25:11.500Z,998.81
2019-02-11T02:26:11.554Z,998.87
2019-02-11T02:27:11.604Z,998.84
2019-02-11T02:28:11.658Z,998.87
2019-02-11T02:29:11.708Z,998.89
2019-02-11T02:30:11.761Z,998.94
2019-02-11T02:31:11.813Z,998.90
2019-02-11T02:32:11.863Z,998.95
2019-02-11T02:33:11.915Z,999.05
2019-02-11T02:34:11.967Z,999.03
2019-02-11T02:35:12.018Z,999.10
2019-02-11T02:36:12.071Z,999.09
2019-02-11T02:37:12.123Z,999.10
2019-02-11T02:38:12.173Z,999.10
2019-02-11T02:39:12.226Z,999.12
2019-02-11T02:40:12.277Z,999.15
2019-02-11T02:41:12.330Z,999.21
2019-02-11T02:42:12.381Z,999.23
2019-02-11T02:43:12.432Z,999.27
2019-02-11T02:44:12.485Z,999.25
2019-02-11T02:45:12.539Z,999.21
2019-02-11T02:46:12.589Z,999.23
2019-02-11T02:47:12.639Z,999.36
2019-02-11T02:48:12.698Z,999.33
2019-02-11T02:49:12.743Z,999.26
2019-02-11T02:50:12.796Z,999.35
2019-02-11T02:51:12.848Z,999.32
2019-02-11T02:52:12.897Z,999.37
2019-02-11T02:53:12.954Z,999.35
2019-02-11T02:54:13.002Z,999.39
2019-02-11T02:55:13.052Z,999.42
2019-02-11T02:56:13.105Z,999.49
2019-02-11T02:57:13.155Z,999.49
2019-02-11T02:58:13.208Z,999.53
2019-02-11T02:59:13.262Z,999.50
2019-02-11T03:00:13.312Z,999.56
2019-02-11T03:01:13.365Z,999.58
2019-02-11T03:02:13.414Z,999.62
2019-02-11T03:03:13.466Z,999.64
2019-02-11T03:04:13.520Z,999.59
2019-02-11T03:05:13.569Z,999.68
2019-02-11T03:06:13.640Z,999.68
2019-02-11T03:07:13.672Z,999.72
2019-02-11T03:08:13.725Z,999.79
2019-02-11T03:09:13.777Z,999.75
2019-02-11T03:10:13.828Z,999.73
2019-02-11T03:11:13.880Z,999.78
2019-02-11T03:12:13.933Z,999.80
2019-02-11T03:13:13.983Z,999.87
2019-02-11T03:14:14.042Z,999.87
2019-02-11T03:15:14.089Z,999.97
2019-02-11T03:16:14.138Z,1000.00
2019-02-11T03:17:14.193Z,999.96
2019-02-11T03:18:14.241Z,999.95
2019-02-11T03:19:14.293Z,1000.01
2019-02-11T03:20:14.346Z,999.99
2019-02-11T03:21:14.402Z,1000.02
2019-02-11T03:22:14.448Z,1000.10
2019-02-11T03:23:14.505Z,1000.07
2019-02-11T03:24:14.553Z,1000.12
2019-02-11T03:25:14.614Z,1000.11
2019-02-11T03:26:14.657Z,1000.13
2019-02-11T03:27:14.710Z,1000.16
2019-02-11T03:28:14.762Z,1000.23
2019-02-11T03:29:14.812Z,1000.20
2019-02-11T03:30:14.869Z,1000.20
2019-02-11T03:31:14.943Z,1000.24
2019-02-11T03:32:14.974Z,1000.26
2019-02-11T03:33:15.027Z,1000.30
2019-02-11T03:34:15.070Z,1000.25
2019-02-11T03:35:15.124Z,1000.24
2019-02-11T03:36:15.176Z,1000.28
2019-02-11T03:37:15.227Z,1000.30
2019-02-11T03:38:15.281Z,1000.27
2019-02-11T03:39:15.332Z,1000.36
2019-02-11T03:40:15.384Z,1000.38
2019-02-11T03:41:15.434Z,1000.41
2019-02-11T03:42:15.487Z,1000.40
2019-02-11T03:43:15.540Z,1000.46
2019-02-11T03:44:15.603Z,1000.45
2019-02-11T03:45:15.642Z,1000.47
2019-02-11T03:46:15.694Z,1000.48
2019-02-11T03:47:15.754Z,1000.51
2019-02-11T03:48:15.799Z,1000.51
2019-02-11T03:49:17.806Z,1000.53
2019-02-11T03:50:15.902Z,1000.54
2019-02-11T03:51:15.954Z,1000.57
2019-02-11T03:52:16.011Z,1000.62
2019-02-11T03:53:16.057Z,1000.63
2019-02-11T03:54:16.109Z,1000.68
2019-02-11T03:55:16.162Z,1000.65
2019-02-11T03:56:16.223Z,1000.77
2019-02-11T03:57:16.264Z,1000.79
2019-02-11T03:58:16.320Z,1000.77
2019-02-11T03:59:49.584Z,1000.78
2019-02-11T04:00:16.421Z,1000.81
2019-02-11T04:01:16.472Z,1000.83
2019-02-11T04:02:16.539Z,1000.84
2019-02-11T04:03:16.577Z,1000.90
2019-02-11T04:04:16.629Z,1000.92
2019-02-11T04:05:16.684Z,1000.94
2019-02-11T04:06:16.734Z,1000.97
2019-02-11T04:07:16.784Z,1000.97
2019-02-11T04:08:16.838Z,1000.96
2019-02-11T04:09:16.887Z,1001.04
2019-02-11T04:10:16.939Z,1001.09
2019-02-11T04:11:16.991Z,1001.09
2019-02-11T04:12:17.045Z,1001.11
2019-02-11T04:13:17.095Z,1001.16
2019-02-11T04:14:24.700Z,1001.18
2019-02-11T04:15:17.211Z,1001.22
2019-02-11T04:16:17.251Z,1001.25
2019-02-11T04:17:17.304Z,1001.21
2019-02-11T04:18:17.364Z,1001.27
2019-02-11T04:19:17.406Z,1001.30
2019-02-11T04:20:17.464Z,1001.30
2019-02-11T04:21:17.509Z,1001.32
2019-02-11T04:22:17.561Z,1001.32
2019-02-11T04:23:17.616Z,1001.41
2019-02-11T04:24:17.666Z,1001.44
2019-02-11T04:25:17.720Z,1001.44
2019-02-11T04:26:17.769Z,1001.46
2019-02-11T04:27:17.822Z,1001.48
2019-02-11T04:28:17.893Z,1001.49
2019-02-11T04:29:17.926Z,1001.54
2019-02-11T04:30:17.982Z,1001.51
2019-02-11T04:31:18.029Z,1001.54
2019-02-11T04:32:18.082Z,1001.57
2019-02-11T04:33:18.137Z,1001.59
2019-02-11T04:34:18.249Z,1001.58
2019-02-11T04:35:18.276Z,1001.59
2019-02-11T04:36:18.305Z,1001.67
2019-02-11T04:37:18.346Z,1001.69
2019-02-11T04:38:18.393Z,1001.70
2019-02-11T04:39:18.445Z,1001.72
2019-02-11T04:40:18.496Z,1001.77
2019-02-11T04:41:18.547Z,1001.77
2019-02-11T04:42:18.600Z,1001.83
2019-02-11T04:43:18.652Z,1001.88
2019-02-11T04:44:18.704Z,1001.89
2019-02-11T04:45:18.754Z,1001.91
2019-02-11T04:46:18.806Z,1001.87
2019-02-11T04:47:18.861Z,1001.89
2019-02-11T04:48:18.911Z,1001.94
2019-02-11T04:49:18.993Z,1001.94
2019-02-11T04:50:19.014Z,1001.93
2019-02-11T04:51:19.065Z,1001.99
2019-02-11T04:52:19.118Z,1002.02
2019-02-11T04:53:19.201Z,1001.99
2019-02-11T04:54:19.227Z,1002.02
2019-02-11T04:55:19.278Z,1002.05
2019-02-11T04:56:19.325Z,1002.08
2019-02-11T04:57:19.376Z,1002.11
2019-02-11T04:58:19.461Z,1002.12
2019-02-11T04:59:19.542Z,1002.12
2019-02-11T05:00:19.587Z,1002.14
2019-02-11T05:01:19.594Z,1002.20
2019-02-11T05:02:19.638Z,1002.28
2019-02-11T05:03:19.686Z,1002.27
2019-02-11T05:04:19.739Z,1002.27
2019-02-11T05:05:19.791Z,1002.29
2019-02-11T05:06:19.845Z,1002.33
2019-02-11T05:07:19.895Z,1002.32
2019-02-11T05:08:20.336Z,1002.34
2019-02-11T05:09:20.008Z,1002.40
2019-02-11T05:10:20.048Z,1002.36
2019-02-11T05:11:20.108Z,1002.38
2019-02-11T05:12:20.177Z,1002.36
2019-02-11T05:13:20.224Z,1002.36
2019-02-11T05:14:20.257Z,1002.41
2019-02-11T05:15:20.307Z,1002.38
2019-02-11T05:16:20.359Z,1002.39
2019-02-11T05:17:20.410Z,1002.41
2019-02-11T05:18:20.465Z,1002.41
2019-02-11T05:19:20.516Z,1002.46
2019-02-11T05:20:20.574Z,1002.41
2019-02-11T05:21:20.618Z,1002.50
2019-02-11T05:22:20.669Z,1002.50
2019-02-11T05:23:20.720Z,1002.56
2019-02-11T05:24:20.772Z,1002.57
2019-02-11T05:25:20.825Z,1002.60
2019-02-11T05:26:22.848Z,1002.68
2019-02-11T05:27:20.927Z,1002.66
2019-02-11T05:28:20.979Z,1002.66
2019-02-11T05:29:21.029Z,1002.69
2019-02-11T05:30:21.082Z,1002.72
2019-02-11T05:31:21.169Z,1002.74
2019-02-11T05:32:21.184Z,1002.74
2019-02-11T05:33:21.306Z,1002.74
2019-02-11T05:34:21.288Z,1002.77
2019-02-11T05:35:21.337Z,1002.77
2019-02-11T05:36:21.396Z,1002.73
2019-02-11T05:37:21.441Z,1002.78
2019-02-11T05:38:21.492Z,1002.76
2019-02-11T05:39:21.543Z,1002.80
2019-02-11T05:40:21.595Z,1002.80
2019-02-11T05:41:21.645Z,1002.77
2019-02-11T05:42:21.698Z,1002.79
2019-02-11T05:43:21.749Z,1002.80
2019-02-11T05:44:21.800Z,1002.84
2019-02-11T05:45:21.852Z,1002.85
2019-02-11T05:46:21.902Z,1002.87
2019-02-11T05:47:21.954Z,1002.91
2019-02-11T05:48:22.006Z,1002.90
2019-02-11T05:49:22.057Z,1002.88
2019-02-11T05:50:22.108Z,1002.88
2019-02-11T05:51:22.159Z,1002.88
2019-02-11T05:52:22.212Z,1002.85
2019-02-11T05:53:22.263Z,1002.86
2019-02-11T05:54:22.315Z,1002.91
2019-02-11T05:55:23.885Z,1002.88
2019-02-11T05:56:22.415Z,1002.91
2019-02-11T05:57:22.467Z,1002.95
2019-02-11T05:58:22.517Z,1002.98
2019-02-11T05:59:22.571Z,1002.99
2019-02-11T06:00:22.623Z,1003.03
2019-02-11T06:01:22.672Z,1003.04
2019-02-11T06:02:22.726Z,1003.03
2019-02-11T06:03:22.775Z,1003.08
2019-02-11T06:04:22.826Z,1003.13
2019-02-11T06:05:22.876Z,1003.15
2019-02-11T06:06:22.929Z,1003.14
2019-02-11T06:07:22.984Z,1003.18
2019-02-11T06:08:23.152Z,1003.20
2019-02-11T06:09:23.356Z,1003.21
2019-02-11T06:10:23.135Z,1003.21
2019-02-11T06:11:23.187Z,1003.23
2019-02-11T06:12:23.269Z,1003.24
2019-02-11T06:13:23.319Z,1003.27
2019-02-11T06:14:23.344Z,1003.27
2019-02-11T06:15:23.392Z,1003.26
2019-02-11T06:16:23.443Z,1003.33
2019-02-11T06:17:23.494Z,1003.34
2019-02-11T06:18:23.546Z,1003.35
2019-02-11T06:19:23.601Z,1003.42
2019-02-11T06:20:23.651Z,1003.42
2019-02-11T06:21:23.701Z,1003.42
2019-02-11T06:22:23.757Z,1003.46
2019-02-11T06:23:23.804Z,1003.48
2019-02-11T06:24:24.164Z,1003.46
2019-02-11T06:25:23.908Z,1003.54
2019-02-11T06:26:23.960Z,1003.56
2019-02-11T06:27:24.013Z,1003.57
2019-02-11T06:28:24.390Z,1003.58
2019-02-11T06:29:24.115Z,1003.65
2019-02-11T06:30:24.167Z,1003.65
2019-02-11T06:31:24.218Z,1003.68
2019-02-11T06:32:24.283Z,1003.71
2019-02-11T06:33:24.321Z,1003.72
2019-02-11T06:34:24.372Z,1003.72
2019-02-11T06:35:24.425Z,1003.76
2019-02-11T06:36:24.477Z,1003.79
2019-02-11T06:37:24.532Z,1003.82
2019-02-11T06:38:24.584Z,1003.88
2019-02-11T06:39:24.633Z,1003.92
2019-02-11T06:40:24.687Z,1003.94
2019-02-11T06:41:24.734Z,1003.96
2019-02-11T06:42:24.785Z,1003.99
2019-02-11T06:43:24.838Z,1004.00
2019-02-11T06:44:24.890Z,1004.02
2019-02-11T06:45:24.940Z,1004.03
2019-02-11T06:46:24.993Z,1004.09
2019-02-11T06:47:25.045Z,1004.12
2019-02-11T06:48:25.097Z,1004.11
2019-02-11T06:49:25.148Z,1004.16
2019-02-11T06:50:25.200Z,1004.18
2019-02-11T06:51:25.251Z,1004.23
2019-02-11T06:52:25.303Z,1004.20
2019-02-11T06:53:25.355Z,1004.27
2019-02-11T06:54:25.410Z,1004.33
2019-02-11T06:55:25.457Z,1004.33
2019-02-11T06:56:25.510Z,1004.37
2019-02-11T06:57:25.560Z,1004.36
2019-02-11T06:58:25.612Z,1004.39
2019-02-11T06:59:25.665Z,1004.41
2019-02-11T07:00:25.717Z,1004.47
2019-02-11T07:01:25.769Z,1004.50
2019-02-11T07:02:25.818Z,1004.51
2019-02-11T07:03:25.876Z,1004.54
2019-02-11T07:04:25.926Z,1004.55
2019-02-11T07:05:25.973Z,1004.56
2019-02-11T07:06:26.028Z,1004.58
2019-02-11T07:07:26.077Z,1004.60
2019-02-11T07:08:26.129Z,1004.63
2019-02-11T07:09:26.179Z,1004.62
2019-02-11T07:10:26.231Z,1004.63
2019-02-11T07:11:26.283Z,1004.62
2019-02-11T07:12:26.334Z,1004.63
2019-02-11T07:13:26.385Z,1004.69
2019-02-11T07:14:26.437Z,1004.71
2019-02-11T07:15:26.490Z,1004.71
2019-02-11T07:16:26.540Z,1004.74
2019-02-11T07:17:26.589Z,1004.75
2019-02-11T07:18:26.641Z,1004.77
2019-02-11T07:19:26.693Z,1004.77
2019-02-11T07:20:26.744Z,1004.81
2019-02-11T07:21:26.795Z,1004.81
2019-02-11T07:22:26.846Z,1004.87
2019-02-11T07:23:26.929Z,1004.88
2019-02-11T07:24:26.948Z,1004.92
2019-02-11T07:25:26.999Z,1004.94
2019-02-11T07:26:27.052Z,1004.94
2019-02-11T07:27:27.101Z,1004.99
2019-02-11T07:28:27.155Z,1004.98
2019-02-11T07:29:27.204Z,1004.96
2019-02-11T07:30:27.256Z,1005.05
2019-02-11T07:31:27.313Z,1005.03
2019-02-11T07:32:27.358Z,1005.06
2019-02-11T07:33:27.410Z,1005.03
2019-02-11T07:34:27.495Z,1005.07
2019-02-11T07:35:27.513Z,1005.10
2019-02-11T07:36:27.562Z,1005.11
2019-02-11T07:37:27.613Z,1005.17
2019-02-11T07:38:27.663Z,1005.21
2019-02-11T07:39:27.717Z,1005.21
2019-02-11T07:40:27.769Z,1005.25
2019-02-11T07:41:27.817Z,1005.25
2019-02-11T07:42:27.872Z,1005.30
2019-02-11T07:43:27.921Z,1005.34
2019-02-11T07:44:27.969Z,1005.37
2019-02-11T07:45:30.044Z,1005.41
2019-02-11T07:46:28.071Z,1005.44
2019-02-11T07:47:28.124Z,1005.47
2019-02-11T07:48:29.612Z,1005.48
2019-02-11T07:49:28.224Z,1005.51
2019-02-11T07:50:28.275Z,1005.54
2019-02-11T07:51:28.329Z,1005.55
2019-02-11T07:52:28.379Z,1005.59
2019-02-11T07:53:28.431Z,1005.59
2019-02-11T07:54:28.498Z,1005.67
2019-02-11T07:55:28.533Z,1005.71
2019-02-11T07:56:28.584Z,1005.76
2019-02-11T07:57:28.634Z,1005.80
2019-02-11T07:58:28.696Z,1005.81
2019-02-11T07:59:28.737Z,1005.86
2019-02-11T08:00:28.789Z,1005.85
2019-02-11T08:01:28.839Z,1005.90
2019-02-11T08:02:29.277Z,1005.91
2019-02-11T08:03:28.942Z,1005.90
2019-02-11T08:04:28.993Z,1005.92
2019-02-11T08:05:29.762Z,1005.93
2019-02-11T08:06:29.094Z,1005.96
2019-02-11T08:07:29.146Z,1005.94
2019-02-11T08:08:29.201Z,1005.94
2019-02-11T08:09:29.249Z,1005.93
2019-02-11T08:10:29.302Z,1005.93
2019-02-11T08:11:29.354Z,1005.98
2019-02-11T08:12:29.405Z,1006.01
2019-02-11T08:13:29.455Z,1006.01
2019-02-11T08:14:29.507Z,1006.02
2019-02-11T08:15:29.567Z,1006.05
2019-02-11T08:16:29.612Z,1006.02
2019-02-11T08:17:29.662Z,1006.06
2019-02-11T08:18:29.715Z,1006.03
2019-02-11T08:19:29.767Z,1006.03
2019-02-11T08:20:29.818Z,1006.07
2019-02-11T08:21:29.869Z,1006.12
2019-02-11T08:22:29.922Z,1006.11
2019-02-11T08:23:29.976Z,1006.12
2019-02-11T08:24:30.027Z,1006.13
2019-02-11T08:25:30.080Z,1006.20
2019-02-11T08:26:30.128Z,1006.24
2019-02-11T08:27:30.181Z,1006.33
2019-02-11T08:28:30.233Z,1006.31
2019-02-11T08:29:30.286Z,1006.36
2019-02-11T08:30:30.336Z,1006.39
2019-02-11T08:31:30.389Z,1006.39
2019-02-11T08:32:30.446Z,1006.44
2019-02-11T08:33:30.581Z,1006.49
2019-02-11T08:34:30.547Z,1006.41
2019-02-11T08:35:30.598Z,1006.50
2019-02-11T08:36:31.775Z,1006.56
2019-02-11T08:37:30.701Z,1006.59
2019-02-11T08:38:30.756Z,1006.62
2019-02-11T08:39:30.806Z,1006.57
2019-02-11T08:40:30.902Z,1006.54
2019-02-11T08:41:30.911Z,1006.58
2019-02-11T08:42:30.963Z,1006.57
2019-02-11T08:43:31.015Z,1006.65
2019-02-11T08:44:31.074Z,1006.65
2019-02-11T08:45:31.119Z,1006.66
2019-02-11T08:46:31.172Z,1006.65
2019-02-11T08:47:31.226Z,1006.61
2019-02-11T08:48:31.278Z,1006.62
2019-02-11T08:49:31.330Z,1006.64
2019-02-11T08:50:31.382Z,1006.63
2019-02-11T08:51:31.435Z,1006.70
2019-02-11T08:52:31.488Z,1006.70
2019-02-11T08:53:31.541Z,1006.68
2019-02-11T08:54:31.594Z,1006.70
2019-02-11T08:55:31.645Z,1006.71
2019-02-11T08:56:31.698Z,1006.76
2019-02-11T08:57:31.752Z,1006.76
2019-02-11T08:58:31.803Z,1006.78
2019-02-11T08:59:33.161Z,1006.73
2019-02-11T09:00:31.909Z,1006.80
2019-02-11T09:01:31.961Z,1006.80
2019-02-11T09:02:32.014Z,1006.81
2019-02-11T09:03:32.069Z,1006.84
2019-02-11T09:04:32.121Z,1006.92
2019-02-11T09:05:32.172Z,1006.90
2019-02-11T09:06:32.227Z,1006.97
2019-02-11T09:07:32.278Z,1007.01
2019-02-11T09:08:32.335Z,1007.04
2019-02-11T09:09:32.384Z,1007.07
2019-02-11T09:10:32.436Z,1007.13
2019-02-11T09:11:32.488Z,1007.18
2019-02-11T09:12:33.126Z,1007.13
2019-02-11T09:13:32.594Z,1007.19
2019-02-11T09:14:32.647Z,1007.14
2019-02-11T09:15:32.700Z,1007.25
2019-02-11T09:16:32.754Z,1007.23
2019-02-11T09:17:32.807Z,1007.22
2019-02-11T09:18:32.897Z,1007.35
2019-02-11T09:19:32.915Z,1007.36
2019-02-11T09:20:32.976Z,1007.41
2019-02-11T09:21:33.019Z,1007.42
2019-02-11T09:22:33.073Z,1007.39
2019-02-11T09:23:33.127Z,1007.40
2019-02-11T09:24:34.854Z,1007.40
2019-02-11T09:25:33.235Z,1007.42
2019-02-11T09:26:33.289Z,1007.51
2019-02-11T09:27:33.341Z,1007.49
2019-02-11T09:28:33.433Z,1007.51
2019-02-11T09:29:33.967Z,1007.54
2019-02-11T09:30:33.503Z,1007.56
2019-02-11T09:31:33.556Z,1007.55
2019-02-11T09:32:33.611Z,1007.58
2019-02-11T09:33:33.663Z,1007.59
2019-02-11T09:34:33.715Z,1007.60
2019-02-11T09:35:33.770Z,1007.58
2019-02-11T09:36:33.825Z,1007.64
2019-02-11T09:37:33.878Z,1007.63
2019-02-11T09:38:33.932Z,1007.59
2019-02-11T09:39:33.985Z,1007.68
2019-02-11T09:40:34.039Z,1007.68
2019-02-11T09:41:34.093Z,1007.59
2019-02-11T09:42:34.147Z,1007.66
2019-02-11T09:43:34.201Z,1007.67
2019-02-11T09:44:34.255Z,1007.69
2019-02-11T09:45:34.309Z,1007.68
2019-02-11T09:46:34.367Z,1007.80
2019-02-11T09:47:34.415Z,1007.79
2019-02-11T09:48:34.472Z,1007.91
2019-02-11T09:49:34.523Z,1007.69
2019-02-11T09:50:34.581Z,1007.89
2019-02-11T09:51:34.631Z,1007.87
2019-02-11T09:52:34.686Z,1007.88
2019-02-11T09:53:34.739Z,1007.98
2019-02-11T09:54:34.794Z,1007.96
2019-02-11T09:55:34.850Z,1008.01
2019-02-11T09:56:34.903Z,1008.01
2019-02-11T09:57:34.954Z,1008.03
2019-02-11T09:58:35.009Z,1008.12
2019-02-11T09:59:35.062Z,1008.07
2019-02-11T10:00:35.118Z,1008.10
2019-02-11T10:01:35.321Z,1008.17
2019-02-11T10:02:35.223Z,1008.15
2019-02-11T10:03:35.279Z,1008.16
2019-02-11T10:04:35.333Z,1008.20
2019-02-11T10:05:35.385Z,1008.22
2019-02-11T10:06:35.442Z,1008.28
2019-02-11T10:07:35.493Z,1008.31
2019-02-11T10:08:35.570Z,1008.34
2019-02-11T10:09:35.600Z,1008.32
2019-02-11T10:10:35.655Z,1008.35
2019-02-11T10:11:35.711Z,1008.40
2019-02-11T10:12:35.764Z,1008.40
2019-02-11T10:13:35.821Z,1008.43
2019-02-11T10:14:35.873Z,1008.43
2019-02-11T10:15:36.850Z,1008.44
2019-02-11T10:16:35.992Z,1008.42
2019-02-11T10:17:36.033Z,1008.23
2019-02-11T10:18:36.089Z,1008.52
2019-02-11T10:19:36.144Z,1008.49
2019-02-11T10:20:36.204Z,1008.56
2019-02-11T10:21:36.251Z,1008.57
2019-02-11T10:22:36.667Z,1008.65
2019-02-11T10:23:36.360Z,1008.60
2019-02-11T10:24:36.460Z,1008.66
2019-02-11T10:25:36.467Z,1008.72
2019-02-11T10:26:36.523Z,1008.69
2019-02-11T10:27:36.579Z,1008.74
2019-02-11T10:28:36.632Z,1008.67
2019-02-11T10:29:36.686Z,1008.76
2019-02-11T10:30:36.738Z,1008.78
2019-02-11T10:31:36.794Z,1008.84
2019-02-11T10:32:37.111Z,1008.75
2019-02-11T10:33:36.901Z,1008.77
2019-02-11T10:34:36.956Z,1008.86
2019-02-11T10:35:42.222Z,1008.82
2019-02-11T10:36:37.064Z,1008.78
2019-02-11T10:37:37.864Z,1008.80
2019-02-11T10:38:37.179Z,1008.80
2019-02-11T10:39:37.228Z,1008.93
2019-02-11T10:40:37.282Z,1008.99
2019-02-11T10:41:37.334Z,1008.97
2019-02-11T10:42:37.391Z,1008.98
2019-02-11T10:43:37.444Z,1008.88
2019-02-11T10:44:37.498Z,1008.97
2019-02-11T10:45:37.552Z,1009.01
2019-02-11T10:46:37.609Z,1009.01
2019-02-11T10:47:37.661Z,1009.09
2019-02-11T10:48:37.716Z,1009.12
2019-02-11T10:49:37.768Z,1009.14
2019-02-11T10:50:37.824Z,1009.17
2019-02-11T10:51:37.884Z,1009.19
2019-02-11T10:52:37.932Z,1009.19
2019-02-11T10:53:37.991Z,1009.16
2019-02-11T10:54:38.042Z,1009.17
2019-02-11T10:55:38.097Z,1009.33
2019-02-11T10:56:38.168Z,1009.23
2019-02-11T10:57:38.204Z,1009.26
2019-02-11T10:58:38.730Z,1009.29
2019-02-11T10:59:38.315Z,1009.23
2019-02-11T11:00:38.370Z,1009.31
2019-02-11T11:01:38.425Z,1009.34
2019-02-11T11:02:38.481Z,1009.27
2019-02-11T11:03:38.534Z,1009.30
2019-02-11T11:04:38.590Z,1009.33
2019-02-11T11:05:38.647Z,1009.20
2019-02-11T11:06:38.699Z,1009.27
2019-02-11T11:07:38.756Z,1009.41
2019-02-11T11:08:38.807Z,1009.42
2019-02-11T11:09:38.872Z,1009.51
2019-02-11T11:10:38.918Z,1009.46
2019-02-11T11:11:38.971Z,1009.45
2019-02-11T11:12:39.026Z,1009.39
2019-02-11T11:13:39.079Z,1009.56
2019-02-11T11:14:39.134Z,1009.38
2019-02-11T11:15:39.189Z,1009.42
2019-02-11T11:16:39.553Z,1009.57
2019-02-11T11:17:39.299Z,1009.51
2019-02-11T11:18:39.705Z,1009.59
2019-02-11T11:19:39.407Z,1009.69
2019-02-11T11:20:39.474Z,1009.66
2019-02-11T11:21:39.833Z,1009.67
2019-02-11T11:22:39.569Z,1009.69
2019-02-11T11:23:39.629Z,1009.79
2019-02-11T11:24:39.679Z,1009.83
2019-02-11T11:25:39.737Z,1009.83
2019-02-11T11:26:39.786Z,1009.76
2019-02-11T11:27:39.841Z,1009.73
2019-02-11T11:28:39.895Z,1009.71
2019-02-11T11:29:39.952Z,1009.72
2019-02-11T11:30:40.006Z,1009.67
2019-02-11T11:31:40.371Z,1009.56
2019-02-11T11:32:40.140Z,1009.60
2019-02-11T11:33:40.226Z,1009.66
2019-02-11T11:34:40.251Z,1009.70
2019-02-11T11:35:40.596Z,1009.68
2019-02-11T11:36:40.336Z,1009.72
2019-02-11T11:37:40.388Z,1009.70
2019-02-11T11:38:40.443Z,1009.80
2019-02-11T11:39:40.500Z,1009.78
2019-02-11T11:40:40.556Z,1009.71
2019-02-11T11:41:40.610Z,1009.78
2019-02-11T11:42:40.664Z,1009.86
2019-02-11T11:43:40.722Z,1009.91
2019-02-11T11:44:40.776Z,1009.85
2019-02-11T11:45:40.829Z,1009.76
2019-02-11T11:46:46.890Z,1009.85
2019-02-11T11:47:40.938Z,1009.70
2019-02-11T11:48:40.993Z,1009.76
2019-02-11T11:49:41.049Z,1009.78
2019-02-11T11:50:41.104Z,1010.06
2019-02-11T11:51:41.159Z,1010.16
2019-02-11T11:52:41.214Z,1009.84
2019-02-11T11:53:41.268Z,1009.88
2019-02-11T11:54:41.323Z,1010.07
2019-02-11T11:55:41.385Z,1009.95
2019-02-11T11:56:41.436Z,1010.02
2019-02-11T11:57:41.491Z,1009.97
2019-02-11T11:58:41.552Z,1009.73
2019-02-11T11:59:41.601Z,1009.84
2019-02-11T12:00:41.676Z,1010.37
2019-02-11T12:01:41.732Z,1010.36
2019-02-11T12:02:59.565Z,1010.44
2019-02-11T12:03:41.829Z,1010.48
2019-02-11T12:04:41.876Z,1010.77
2019-02-11T12:05:41.936Z,1010.70
2019-02-11T12:06:41.999Z,1010.78
2019-02-11T12:07:42.152Z,1010.09
2019-02-11T12:08:42.100Z,1010.08
2019-02-11T12:09:43.759Z,1010.58
2019-02-11T12:10:42.205Z,1010.76
2019-02-11T12:11:42.263Z,1010.50